Time;durP1;ratioP1;P1;durP2;ratioP2;P2;SDS_P1;SDS_P2;PMS_P1;PMS_P2;Temp;Humidity;BMP_temperature;BMP_pressure;BME280_temperature;BME280_humidity;BME280_pressure;Samples;Min_cycle;Max_cycle;Signal;HPM_P1;HPM_P2
2021/11/09 00:01:50;;;;;;;13.17;7.67;;;5.80;83.60;;;;;;4972884;28;20194;-90
2021/11/09 00:04:17;;;;;;;10.03;8.73;;;5.70;81.70;;;;;;4982488;28;20198;-91
2021/11/09 00:06:48;;;;;;;7.70;6.77;;;5.50;83.80;;;;;;4994819;28;20218;-88
2021/11/09 00:09:18;;;;;;;9.70;6.50;;;5.40;85.00;;;;;;4983265;28;20244;-89
2021/11/09 00:11:44;;;;;;;9.43;6.63;;;5.50;85.40;;;;;;5004746;28;20208;-89
2021/11/09 00:14:10;;;;;;;5.97;5.40;;;5.50;84.80;;;;;;5016145;28;20217;-91
2021/11/09 00:16:37;;;;;;;10.47;7.60;;;5.50;81.80;;;;;;4999125;28;20236;-89
2021/11/09 00:19:04;;;;;;;9.63;7.47;;;5.40;82.30;;;;;;4988702;28;20200;-88
2021/11/09 00:21:30;;;;;;;9.73;7.27;;;5.30;83.10;;;;;;5023074;28;20213;-89
2021/11/09 00:24:00;;;;;;;8.43;6.10;;;5.20;86.00;;;;;;4989432;28;20260;-89
2021/11/09 00:26:28;;;;;;;8.37;6.07;;;5.00;84.50;;;;;;4993137;28;20217;-90
2021/11/09 00:28:55;;;;;;;7.90;6.23;;;4.90;86.10;;;;;;4996936;28;20225;-88
2021/11/09 00:31:24;;;;;;;7.83;6.07;;;5.00;86.10;;;;;;5017926;28;20181;-89
2021/11/09 00:33:49;;;;;;;7.63;6.33;;;5.00;85.90;;;;;;4985789;28;20256;-88
2021/11/09 00:36:15;;;;;;;11.00;6.73;;;5.20;86.10;;;;;;5006617;28;20228;-89
2021/11/09 00:38:43;;;;;;;6.40;5.67;;;5.20;85.80;;;;;;4980544;28;20198;-88
2021/11/09 00:41:09;;;;;;;6.87;6.13;;;5.30;85.60;;;;;;5012645;28;20209;-88
2021/11/09 00:43:35;;;;;;;8.63;5.83;;;5.40;85.00;;;;;;5004363;28;20200;-90
2021/11/09 00:46:02;;;;;;;8.13;6.17;;;5.30;84.80;;;;;;5012563;28;20200;-88
2021/11/09 00:48:28;;;;;;;8.03;6.10;;;5.30;83.50;;;;;;5023717;28;20303;-90
2021/11/09 00:50:55;;;;;;;6.90;6.20;;;5.40;84.10;;;;;;4986165;28;20193;-89
2021/11/09 00:53:22;;;;;;;7.70;5.43;;;5.30;84.00;;;;;;5003552;28;20208;-89
2021/11/09 00:55:49;;;;;;;6.60;5.87;;;5.40;83.90;;;;;;5000145;28;20210;-89
2021/11/09 00:58:15;;;;;;;6.83;4.93;;;5.40;83.20;;;;;;4999789;28;20217;-88
2021/11/09 01:00:42;;;;;;;6.40;5.80;;;5.40;82.80;;;;;;4986247;28;20633;-90
2021/11/09 01:03:09;;;;;;;6.73;6.03;;;5.50;82.00;;;;;;4997146;28;20264;-89
2021/11/09 01:05:36;;;;;;;7.33;6.00;;;5.40;82.60;;;;;;5000669;28;20210;-90
2021/11/09 01:08:06;;;;;;;7.03;6.33;;;5.40;82.40;;;;;;5015841;28;20217;-87
2021/11/09 01:10:36;;;;;;;6.00;5.33;;;5.40;82.40;;;;;;5014152;28;20246;-90
2021/11/09 01:13:05;;;;;;;6.73;6.03;;;5.40;82.60;;;;;;4986897;28;20173;-89
2021/11/09 01:15:32;;;;;;;7.53;6.23;;;5.40;82.60;;;;;;4988907;28;20198;-88
2021/11/09 01:18:00;;;;;;;7.37;5.40;;;5.40;82.30;;;;;;4988450;28;20309;-89
2021/11/09 01:20:27;;;;;;;6.10;5.50;;;5.40;82.30;;;;;;5016018;28;20208;-89
2021/11/09 01:23:04;;;;;;;6.30;5.23;;;5.40;82.10;;;;;;5009668;28;20186;-88
2021/11/09 01:25:34;;;;;;;9.47;5.37;;;5.40;82.10;;;;;;4997596;28;20281;-88
2021/11/09 01:28:00;;;;;;;8.17;5.33;;;5.10;78.60;;;;;;5007832;28;20252;-88
2021/11/09 01:30:29;;;;;;;6.03;5.30;;;5.00;82.00;;;;;;5006245;28;20252;-89
2021/11/09 01:33:02;;;;;;;6.17;5.23;;;5.00;83.10;;;;;;5017359;28;20190;-88
2021/11/09 01:35:34;;;;;;;8.83;5.53;;;5.10;83.00;;;;;;5022870;28;20185;-88
2021/11/09 01:38:00;;;;;;;7.13;5.53;;;5.20;82.80;;;;;;5006572;28;20633;-88
2021/11/09 01:40:27;;;;;;;6.20;5.57;;;5.10;81.90;;;;;;5022308;28;20235;-89
2021/11/09 01:42:55;;;;;;;6.03;5.50;;;5.00;81.90;;;;;;4989683;28;20194;-89
2021/11/09 01:45:25;;;;;;;9.20;5.57;;;5.00;82.80;;;;;;5024434;28;20557;-88
2021/11/09 01:47:52;;;;;;;6.90;5.43;;;5.10;83.00;;;;;;5022827;28;20212;-88
2021/11/09 01:50:29;;;;;;;7.13;5.83;;;5.10;82.30;;;;;;5002433;28;20175;-88
2021/11/09 01:52:56;;;;;;;9.07;5.50;;;5.10;81.70;;;;;;5002367;28;20193;-90
2021/11/09 01:55:30;;;;;;;7.23;5.73;;;5.00;82.30;;;;;;5008464;28;20253;-90
2021/11/09 01:57:59;;;;;;;6.23;5.63;;;4.70;80.90;;;;;;5002521;28;20212;-90
2021/11/09 02:01:18;;;;;;;;;;;;;;;;;;;;;
2021/11/09 02:04:00;;;;;;;6.53;5.57;;;4.80;83.50;;;;;;4948918;29;20551;-88
2021/11/09 02:09:47;;;;;;;14.47;6.20;;;4.90;83.20;;;;;;5020164;28;20225;-90
2021/11/09 02:12:51;;;;;;;5.67;5.13;;;4.90;82.90;;;;;;5000094;28;20208;-89
2021/11/09 02:15:41;;;;;;;7.00;5.10;;;4.90;82.80;;;;;;5011637;28;20200;-87
2021/11/09 02:18:32;;;;;;;7.73;5.60;;;4.90;82.50;;;;;;4997064;28;20288;-90
2021/11/09 02:21:16;;;;;;;7.80;6.33;;;5.00;82.50;;;;;;4995502;28;20195;-89
2021/11/09 02:23:44;;;;;;;8.17;5.83;;;4.90;82.20;;;;;;4996018;28;20195;-88
2021/11/09 02:26:18;;;;;;;6.43;5.60;;;4.80;81.20;;;;;;5000462;28;20203;-88
2021/11/09 02:29:01;;;;;;;7.30;6.00;;;4.70;82.90;;;;;;4982778;28;20223;-89
2021/11/09 02:32:08;;;;;;;7.33;5.60;;;4.50;81.40;;;;;;4997635;28;20217;-89
2021/11/09 02:34:37;;;;;;;8.20;6.53;;;4.50;83.70;;;;;;4943870;28;20185;-88
2021/11/09 02:37:06;;;;;;;7.63;5.37;;;4.60;83.50;;;;;;4934944;29;20207;-90
2021/11/09 02:40:20;;;;;;;9.13;5.70;;;4.60;83.00;;;;;;4933183;28;20195;-89
2021/11/09 02:43:00;;;;;;;7.07;5.43;;;4.60;82.90;;;;;;4990050;28;20199;-89
2021/11/09 02:48:47;;;;;;;6.53;5.43;;;4.50;85.40;;;;;;5065891;22;20284;-89
2021/11/09 02:54:37;;;;;;;7.33;5.37;;;4.50;83.90;;;;;;4954897;29;20800;-89
2021/11/09 02:57:57;;;;;;;8.40;5.70;;;4.50;83.90;;;;;;4999048;23;20249;-89
2021/11/09 03:06:33;;;;;;;8.03;5.63;;;4.50;83.80;;;;;;5002899;28;20193;-89
2021/11/09 03:09:40;;;;;;;8.73;5.03;;;4.50;83.30;;;;;;4989191;28;20253;-88
2021/11/09 03:12:22;;;;;;;5.57;5.07;;;4.50;84.00;;;;;;5003828;28;20193;-88
2021/11/09 03:15:13;;;;;;;5.90;5.30;;;4.40;82.50;;;;;;5000041;28;20205;-88
2021/11/09 03:20:39;;;;;;;7.23;5.17;;;4.40;83.90;;;;;;4970741;28;20369;-89
2021/11/09 03:44:09;;;;;;;6.07;5.30;;;4.40;83.20;;;;;;5005539;28;20200;-89
2021/11/09 03:46:28;;;;;;;7.90;5.20;;;4.50;83.60;;;;;;5019345;28;20293;-88
2021/11/09 03:49:20;;;;;;;;;;;;;;;;;;;;;
2021/11/09 03:51:54;;;;;;;8.07;5.73;;;4.60;85.50;;;;;;5014632;28;20201;-89
2021/11/09 03:54:30;;;;;;;8.53;5.83;;;4.60;84.20;;;;;;5014668;28;20202;-88
2021/11/09 03:57:23;;;;;;;7.30;5.57;;;4.50;83.70;;;;;;4999148;28;20712;-87
2021/11/09 04:06:14;;;;;;;6.53;5.67;;;4.30;86.80;;;;;;5018070;28;20226;-89
2021/11/09 04:12:28;;;;;;;7.97;5.73;;;4.30;84.60;;;;;;5015683;28;20209;-88
2021/11/09 04:15:16;;;;;;;8.13;5.23;;;4.20;83.80;;;;;;5012412;28;20207;-88
2021/11/09 04:18:08;;;;;;;6.30;5.40;;;3.90;85.90;;;;;;4994916;28;20244;-88
2021/11/09 04:20:58;;;;;;;6.87;5.20;;;4.00;86.00;;;;;;4997298;28;20196;-90
2021/11/09 04:35:40;;;;;;;5.90;5.30;;;4.10;87.80;;;;;;5020189;28;20796;-89
2021/11/09 05:11:38;;;;;;;8.67;5.60;;;4.10;88.80;;;;;;5011511;28;20194;-88
2021/11/09 05:14:08;;;;;;;8.27;5.40;;;4.20;89.10;;;;;;5021060;28;20662;-89
2021/11/09 05:16:40;;;;;;;18.47;6.20;;;4.30;88.40;;;;;;5016193;28;20202;-88
2021/11/09 05:19:35;;;;;;;5.70;4.87;;;4.20;86.60;;;;;;5018609;28;20215;-89
2021/11/09 05:22:01;;;;;;;7.13;4.97;;;4.20;87.20;;;;;;5001699;28;20224;-90
2021/11/09 05:24:35;;;;;;;8.67;5.40;;;4.30;86.80;;;;;;5018239;28;20212;-89
2021/11/09 05:27:04;;;;;;;7.93;5.17;;;4.30;87.10;;;;;;4990688;28;20227;-88
2021/11/09 05:29:34;;;;;;;8.33;5.50;;;4.30;87.20;;;;;;4993142;28;20213;-89
2021/11/09 05:32:11;;;;;;;9.17;6.27;;;4.40;87.30;;;;;;5005590;28;20728;-89
2021/11/09 05:34:56;;;;;;;11.87;5.80;;;4.40;86.60;;;;;;5000524;28;20185;-88
2021/11/09 05:37:52;;;;;;;11.33;6.37;;;4.40;86.30;;;;;;5002996;28;20210;-90
2021/11/09 05:40:53;;;;;;;6.43;5.73;;;4.30;86.40;;;;;;4998809;28;20194;-90
2021/11/09 05:43:41;;;;;;;8.27;5.50;;;4.30;86.60;;;;;;5006435;28;20174;-90
2021/11/09 05:46:13;;;;;;;7.20;5.40;;;4.30;87.20;;;;;;5003111;28;20581;-90
2021/11/09 05:48:39;;;;;;;8.07;5.30;;;4.20;86.80;;;;;;5003350;28;20217;-90
2021/11/09 05:51:17;;;;;;;10.93;5.67;;;4.10;87.60;;;;;;5018977;28;20228;-89
2021/11/09 05:53:44;;;;;;;6.63;5.37;;;4.00;85.20;;;;;;4985193;28;20700;-90
2021/11/09 05:56:13;;;;;;;6.77;5.10;;;3.90;84.60;;;;;;4988904;28;20922;-90
2021/11/09 05:58:40;;;;;;;8.83;4.93;;;3.70;85.60;;;;;;4997159;28;20193;-89
2021/11/09 06:01:09;;;;;;;9.20;4.87;;;3.70;86.90;;;;;;5001325;28;20182;-91
2021/11/09 06:03:43;;;;;;;8.53;5.63;;;3.70;87.80;;;;;;5020503;28;20193;-89
2021/11/09 06:06:15;;;;;;;8.33;5.87;;;3.70;87.60;;;;;;5001739;28;20312;-89
2021/11/09 06:08:49;;;;;;;8.43;6.00;;;3.60;87.10;;;;;;5000892;28;20250;-89
2021/11/09 06:11:20;;;;;;;8.60;5.50;;;3.50;87.30;;;;;;4999411;28;20185;-89
2021/11/09 06:13:46;;;;;;;8.87;5.93;;;3.60;88.80;;;;;;5001131;28;20182;-90
2021/11/09 06:16:16;;;;;;;11.70;5.60;;;3.60;87.60;;;;;;5002683;28;20185;-88
2021/11/09 06:18:43;;;;;;;8.80;5.50;;;3.50;87.60;;;;;;5012812;28;20174;-89
2021/11/09 06:21:09;;;;;;;9.63;6.27;;;3.50;89.10;;;;;;5019019;28;20284;-91
2021/11/09 06:23:35;;;;;;;10.57;6.80;;;3.40;90.70;;;;;;5006971;28;20190;-91
2021/11/09 06:26:01;;;;;;;7.83;6.33;;;3.40;91.70;;;;;;5000357;28;20243;-90
2021/11/09 06:28:28;;;;;;;21.40;16.07;;;3.20;92.80;;;;;;5000127;28;20246;-89
2021/11/09 06:30:54;;;;;;;19.00;16.20;;;3.10;93.60;;;;;;5007915;28;20185;-87
2021/11/09 06:33:45;;;;;;;13.37;8.50;;;3.10;94.40;;;;;;5006678;28;20196;-88
2021/11/09 06:36:14;;;;;;;12.17;7.87;;;3.00;95.00;;;;;;5004233;28;20659;-90
2021/11/09 06:38:40;;;;;;;15.30;8.50;;;3.00;95.50;;;;;;5019802;28;20288;-89
2021/11/09 06:41:06;;;;;;;11.03;7.47;;;3.00;95.80;;;;;;4997945;28;20674;-90
2021/11/09 06:43:31;;;;;;;10.90;8.03;;;2.90;96.30;;;;;;5014613;28;20197;-91
2021/11/09 06:45:58;;;;;;;11.37;7.50;;;3.00;96.70;;;;;;5016517;28;20208;-92
2021/11/09 06:48:25;;;;;;;11.60;7.50;;;3.00;96.30;;;;;;5019056;28;20205;-87
2021/11/09 06:50:53;;;;;;;13.03;7.83;;;3.00;96.40;;;;;;4995965;28;20647;-88
2021/11/09 06:53:20;;;;;;;11.63;7.37;;;3.00;96.30;;;;;;5020607;28;20181;-88
2021/11/09 06:55:46;;;;;;;13.07;8.43;;;3.00;96.60;;;;;;4991501;28;20265;-90
2021/11/09 06:58:12;;;;;;;11.90;7.70;;;3.10;96.70;;;;;;5015938;28;20218;-89
2021/11/09 07:00:38;;;;;;;9.77;7.87;;;3.00;96.80;;;;;;5023523;28;20269;-90
2021/11/09 07:03:04;;;;;;;10.13;7.80;;;3.10;96.80;;;;;;5004643;28;20192;-90
2021/11/09 07:05:30;;;;;;;11.07;7.93;;;3.10;97.20;;;;;;4995377;28;20197;-88
2021/11/09 07:07:56;;;;;;;18.27;8.70;;;3.10;96.80;;;;;;4990621;28;20221;-89
2021/11/09 07:10:22;;;;;;;11.13;8.40;;;3.20;97.00;;;;;;4996334;28;20627;-89
2021/11/09 07:12:48;;;;;;;14.20;8.27;;;3.20;97.40;;;;;;4997724;28;20201;-89
2021/11/09 07:15:18;;;;;;;12.37;8.57;;;3.30;96.80;;;;;;5001482;28;20300;-91
2021/11/09 07:17:52;;;;;;;10.17;8.10;;;3.40;96.50;;;;;;5019680;28;20261;-87
2021/11/09 07:20:27;;;;;;;13.63;9.00;;;3.40;96.10;;;;;;5006814;28;20220;-88
2021/11/09 07:22:55;;;;;;;15.27;9.00;;;3.50;96.10;;;;;;5021215;28;20221;-90
2021/11/09 07:25:21;;;;;;;11.33;8.37;;;3.50;95.40;;;;;;5003509;28;20304;-87
2021/11/09 07:27:50;;;;;;;11.43;7.77;;;3.60;96.00;;;;;;5001846;28;20851;-88
2021/11/09 07:30:16;;;;;;;13.03;9.13;;;3.70;95.60;;;;;;5002271;28;20217;-88
2021/11/09 07:32:45;;;;;;;11.93;8.13;;;3.60;94.70;;;;;;4997166;28;20197;-88
2021/11/09 07:35:16;;;;;;;11.03;8.80;;;3.60;95.30;;;;;;4996076;28;20194;-87
2021/11/09 07:37:42;;;;;;;11.50;8.43;;;3.60;95.70;;;;;;5001386;28;20210;-88
2021/11/09 07:40:12;;;;;;;11.73;8.53;;;3.60;95.40;;;;;;5002032;28;20212;-86
2021/11/09 07:42:46;;;;;;;17.37;8.70;;;3.50;96.30;;;;;;5001863;28;20724;-90
2021/11/09 07:45:18;;;;;;;13.07;9.03;;;3.60;96.70;;;;;;5013421;28;20189;-88
2021/11/09 07:47:56;;;;;;;14.77;8.83;;;3.70;96.20;;;;;;5011444;28;20294;-88
2021/11/09 07:50:22;;;;;;;8.97;8.00;;;3.70;95.50;;;;;;5004490;28;20206;-88
2021/11/09 07:52:48;;;;;;;12.07;8.93;;;3.80;96.20;;;;;;4999728;28;20198;-89
2021/11/09 07:55:19;;;;;;;11.17;8.93;;;3.70;96.40;;;;;;5018983;28;20193;-88
2021/11/09 07:57:53;;;;;;;10.17;7.87;;;3.80;96.20;;;;;;4981606;28;20595;-87
2021/11/09 08:00:34;;;;;;;11.90;8.60;;;3.80;96.40;;;;;;4990507;28;20201;-88
2021/11/09 08:05:34;;;;;;;13.53;8.37;;;4.00;96.10;;;;;;5001289;28;20853;-87
2021/11/09 08:08:04;;;;;;;12.87;8.63;;;4.10;96.20;;;;;;5000522;28;20249;-90
2021/11/09 08:10:36;;;;;;;11.10;8.57;;;4.10;95.60;;;;;;4986952;28;20187;-87
2021/11/09 08:13:02;;;;;;;11.20;9.03;;;4.20;95.00;;;;;;4981498;28;20213;-88
2021/11/09 08:15:28;;;;;;;9.53;8.43;;;4.20;95.60;;;;;;4999465;28;20190;-88
2021/11/09 08:17:54;;;;;;;14.83;9.43;;;4.20;95.30;;;;;;5028528;28;20265;-88
2021/11/09 08:20:23;;;;;;;12.87;8.57;;;4.30;95.60;;;;;;5006534;28;20241;-89
2021/11/09 08:23:17;;;;;;;14.73;10.10;;;4.40;95.60;;;;;;5020062;28;20198;-88
2021/11/09 08:25:48;;;;;;;12.47;9.33;;;4.40;95.50;;;;;;5027633;28;20185;-90
2021/11/09 08:28:14;;;;;;;15.07;10.23;;;4.50;95.80;;;;;;5005960;28;20655;-88
2021/11/09 08:30:40;;;;;;;12.83;11.03;;;4.50;95.40;;;;;;5003336;28;20206;-88
2021/11/09 08:33:08;;;;;;;13.93;10.47;;;4.60;95.30;;;;;;5001115;28;20197;-88
2021/11/09 08:35:53;;;;;;;14.27;10.37;;;4.60;95.20;;;;;;4984910;28;20195;-88
2021/11/09 08:38:19;;;;;;;14.63;11.40;;;4.70;95.50;;;;;;5014469;28;20205;-88
2021/11/09 08:40:45;;;;;;;15.83;12.13;;;4.70;95.20;;;;;;5000464;28;20194;-88
2021/11/09 08:43:15;;;;;;;13.80;10.87;;;4.80;94.80;;;;;;5005693;28;20257;-88
2021/11/09 08:45:54;;;;;;;14.43;10.07;;;4.80;94.30;;;;;;5007640;28;20197;-88
2021/11/09 08:48:23;;;;;;;15.43;10.13;;;4.90;95.30;;;;;;4980929;28;20217;-87
2021/11/09 08:50:54;;;;;;;16.87;11.83;;;5.00;95.00;;;;;;5022900;28;20185;-88
2021/11/09 08:53:31;;;;;;;16.50;12.37;;;5.00;94.50;;;;;;5020247;28;20282;-88
2021/11/09 09:01:20;;;;;;;14.73;11.70;;;5.30;94.60;;;;;;5020718;28;20809;-88
2021/11/09 09:04:14;;;;;;;19.17;10.63;;;5.30;94.10;;;;;;5005500;28;20193;-88
2021/11/09 09:06:42;;;;;;;12.07;8.83;;;5.50;93.30;;;;;;5007944;28;20216;-87
2021/11/09 09:09:09;;;;;;;14.97;12.43;;;5.50;92.80;;;;;;5001812;28;20245;-88
2021/11/09 09:11:35;;;;;;;13.97;10.70;;;5.60;92.20;;;;;;5023159;28;20196;-88
2021/11/09 09:14:03;;;;;;;13.77;11.30;;;5.70;92.20;;;;;;5018019;28;20280;-88
2021/11/09 09:16:36;;;;;;;14.90;10.73;;;5.80;91.70;;;;;;5019770;28;20233;-88
2021/11/09 09:19:04;;;;;;;15.70;11.30;;;5.80;91.50;;;;;;5003518;28;20189;-88
2021/11/09 09:24:30;;;;;;;13.87;8.33;;;6.00;90.80;;;;;;5025006;28;20209;-89
2021/11/09 09:27:04;;;;;;;17.27;8.57;;;6.20;89.40;;;;;;5004570;28;20269;-89
2021/11/09 09:29:58;;;;;;;11.47;8.70;;;6.20;89.70;;;;;;5003047;28;20213;-89
2021/11/09 09:55:02;;;;;;;10.10;7.97;;;7.70;83.60;;;;;;5016807;28;20320;-87
2021/11/09 09:57:29;;;;;;;13.53;8.30;;;7.90;82.70;;;;;;4997732;28;20217;-88
2021/11/09 09:59:57;;;;;;;8.83;6.80;;;8.10;81.30;;;;;;5019849;28;20649;-88
2021/11/09 10:02:26;;;;;;;10.33;6.73;;;8.20;80.60;;;;;;5013219;28;20673;-88
2021/11/09 10:04:59;;;;;;;13.87;7.73;;;8.40;80.30;;;;;;5001197;28;20665;-89
2021/11/09 10:07:39;;;;;;;11.23;7.27;;;8.50;80.30;;;;;;5010692;28;20301;-89
2021/11/09 10:10:11;;;;;;;11.70;7.83;;;8.70;77.90;;;;;;5012849;28;20209;-88
2021/11/09 10:12:42;;;;;;;8.30;6.40;;;8.90;76.60;;;;;;4989694;28;20202;-88
2021/11/09 10:15:14;;;;;;;12.27;7.13;;;9.00;76.70;;;;;;5012434;28;20205;-87
2021/11/09 10:17:46;;;;;;;8.57;6.80;;;9.20;76.30;;;;;;5014333;28;20213;-87
2021/11/09 10:20:18;;;;;;;9.70;6.77;;;9.40;75.50;;;;;;4997386;28;20196;-87
2021/11/09 10:22:53;;;;;;;8.93;6.80;;;9.60;74.10;;;;;;5016722;28;20244;-88
2021/11/09 10:25:21;;;;;;;7.50;6.40;;;9.60;72.60;;;;;;4993630;28;20194;-88
2021/11/09 10:27:52;;;;;;;11.00;6.43;;;9.80;71.90;;;;;;4997329;28;20245;-88
2021/11/09 10:30:21;;;;;;;9.33;6.63;;;9.80;72.30;;;;;;4980776;28;20546;-88
2021/11/09 10:32:48;;;;;;;19.33;6.30;;;10.00;71.00;;;;;;5010141;28;20182;-88
2021/11/09 10:35:16;;;;;;;7.73;5.93;;;10.00;69.50;;;;;;5011758;28;20198;-88
2021/11/09 10:37:48;;;;;;;10.43;6.50;;;10.10;67.90;;;;;;5013372;28;20213;-88
2021/11/09 10:40:19;;;;;;;26.97;23.33;;;10.10;68.00;;;;;;5016122;28;20298;-88
2021/11/09 10:42:48;;;;;;;10.90;6.30;;;10.30;67.10;;;;;;4995689;28;20186;-88
2021/11/09 10:45:19;;;;;;;8.60;5.70;;;10.50;66.80;;;;;;4985944;28;20294;-88
2021/11/09 10:47:49;;;;;;;12.20;6.17;;;10.60;65.70;;;;;;5013849;28;20230;-90
2021/11/09 10:50:24;;;;;;;6.00;5.30;;;10.60;65.30;;;;;;5000740;28;20209;-88
2021/11/09 10:53:16;;;;;;;7.40;5.93;;;10.80;65.40;;;;;;4997127;28;20273;-88
2021/11/09 11:04:11;;;;;;;196.37;33.77;;;11.30;61.30;;;;;;5012952;28;20827;-87
2021/11/09 11:06:47;;;;;;;8.63;6.30;;;11.60;61.40;;;;;;4994938;28;20264;-87
2021/11/09 11:09:15;;;;;;;8.40;6.13;;;11.80;59.70;;;;;;4994140;28;20230;-88
2021/11/09 11:11:52;;;;;;;8.03;5.07;;;12.00;58.10;;;;;;4992645;28;20870;-88
2021/11/09 11:14:24;;;;;;;7.43;4.23;;;12.20;58.10;;;;;;5014194;28;20234;-88
2021/11/09 11:16:59;;;;;;;6.57;4.47;;;12.40;56.00;;;;;;4997773;28;20240;-88
2021/11/09 11:19:39;;;;;;;8.30;4.97;;;12.30;54.70;;;;;;5008262;28;20191;-88
2021/11/09 11:22:07;;;;;;;6.93;5.00;;;12.40;55.10;;;;;;4985281;28;20229;-86
2021/11/09 11:24:34;;;;;;;6.50;4.30;;;12.50;54.80;;;;;;5007145;28;20203;-86
2021/11/09 11:27:00;;;;;;;6.07;3.70;;;12.80;52.20;;;;;;5010055;28;20243;-86
2021/11/09 11:29:31;;;;;;;6.33;4.63;;;12.80;52.30;;;;;;5011217;28;20227;-87
2021/11/09 11:32:00;;;;;;;6.53;4.73;;;12.70;54.00;;;;;;4996639;28;20200;-88
2021/11/09 11:34:27;;;;;;;5.87;3.90;;;13.00;52.50;;;;;;4995588;28;20877;-87
2021/11/09 11:36:54;;;;;;;10.57;9.43;;;13.10;51.90;;;;;;4977039;28;20231;-86
2021/11/09 11:39:27;;;;;;;6.33;4.70;;;13.30;51.50;;;;;;4992580;28;20209;-85
2021/11/09 11:41:59;;;;;;;6.80;4.47;;;13.00;51.60;;;;;;4995330;28;20194;-85
2021/11/09 11:44:26;;;;;;;7.83;4.70;;;12.90;51.10;;;;;;5008732;28;20206;-85
2021/11/09 11:47:01;;;;;;;6.33;4.53;;;12.90;52.00;;;;;;5010486;28;20447;-86
2021/11/09 11:49:37;;;;;;;7.43;4.63;;;12.90;52.10;;;;;;5005744;28;20224;-85
2021/11/09 11:52:06;;;;;;;9.37;4.73;;;13.10;52.40;;;;;;5005235;28;20680;-85
2021/11/09 11:54:44;;;;;;;6.67;4.57;;;13.30;50.60;;;;;;5005379;28;20316;-85
2021/11/09 11:57:25;;;;;;;5.30;4.27;;;13.20;50.50;;;;;;5008128;28;20228;-85
2021/11/09 11:59:51;;;;;;;12.37;4.83;;;13.40;51.40;;;;;;4997807;28;20200;-85
2021/11/09 12:02:35;;;;;;;7.77;4.70;;;13.50;51.00;;;;;;5016687;28;20271;-84
2021/11/09 12:05:02;;;;;;;8.70;4.77;;;13.50;50.60;;;;;;4985273;28;20201;-85
2021/11/09 12:07:54;;;;;;;5.90;4.30;;;13.40;50.50;;;;;;4993183;28;20244;-85
2021/11/09 12:10:21;;;;;;;9.30;5.30;;;13.60;50.40;;;;;;5007543;28;20219;-86
2021/11/09 12:13:06;;;;;;;10.07;5.93;;;13.50;50.60;;;;;;5003963;28;20239;-85
2021/11/09 12:15:51;;;;;;;9.40;5.10;;;13.50;51.10;;;;;;4982469;28;20197;-87
2021/11/09 12:18:31;;;;;;;7.87;5.13;;;13.70;51.00;;;;;;5004506;28;20236;-88
2021/11/09 12:21:02;;;;;;;6.23;4.90;;;13.90;50.10;;;;;;4988068;28;20220;-87
2021/11/09 12:23:30;;;;;;;8.23;4.97;;;13.90;50.80;;;;;;5019610;28;20221;-88
2021/11/09 12:25:56;;;;;;;12.43;5.47;;;14.20;50.00;;;;;;5007759;28;20195;-87
2021/11/09 12:28:37;;;;;;;9.77;5.27;;;14.30;49.10;;;;;;5001796;28;20209;-87
2021/11/09 12:31:15;;;;;;;8.07;5.23;;;14.30;49.30;;;;;;5007741;28;20194;-87
2021/11/09 12:33:47;;;;;;;8.50;5.40;;;14.30;49.00;;;;;;5007977;28;20223;-87
2021/11/09 12:36:12;;;;;;;11.37;5.00;;;14.40;48.80;;;;;;4998454;28;20197;-87
2021/11/09 12:38:43;;;;;;;8.43;5.10;;;14.50;49.10;;;;;;5012384;28;20254;-87
2021/11/09 12:41:10;;;;;;;6.03;4.70;;;14.40;48.30;;;;;;5013870;28;20217;-87
2021/11/09 12:44:11;;;;;;;7.13;5.33;;;14.10;49.00;;;;;;4996157;28;20250;-86
2021/11/09 12:46:40;;;;;;;7.10;4.80;;;14.20;49.60;;;;;;5011870;28;20295;-86
2021/11/09 12:49:13;;;;;;;10.83;5.50;;;14.30;49.50;;;;;;4993449;28;20249;-87
2021/11/09 12:51:46;;;;;;;8.70;4.77;;;14.40;49.40;;;;;;5018299;28;20178;-86
2021/11/09 12:54:34;;;;;;;7.67;4.50;;;14.50;48.80;;;;;;4996972;28;20248;-87
2021/11/09 12:57:17;;;;;;;10.63;5.30;;;14.10;49.80;;;;;;5018134;22;20232;-87
2021/11/09 12:59:53;;;;;;;7.43;4.77;;;14.30;49.40;;;;;;5030588;28;20181;-87
2021/11/09 13:05:28;;;;;;;10.50;4.60;;;14.30;47.90;;;;;;5021965;28;20278;-87
2021/11/09 13:08:18;;;;;;;5.47;4.20;;;14.40;48.70;;;;;;5020757;28;20220;-86
2021/11/09 13:10:44;;;;;;;5.73;4.40;;;14.60;47.60;;;;;;4987204;28;20229;-87
2021/11/09 13:13:12;;;;;;;10.97;5.33;;;14.70;48.60;;;;;;4979848;28;20205;-87
2021/11/09 13:15:37;;;;;;;5.50;4.40;;;14.70;47.70;;;;;;4992855;28;20194;-88
2021/11/09 13:18:04;;;;;;;8.53;4.80;;;14.80;47.30;;;;;;4994667;28;20217;-88
2021/11/09 13:20:36;;;;;;;10.73;5.07;;;14.90;47.50;;;;;;5008609;28;20192;-88
2021/11/09 13:23:02;;;;;;;20.43;5.60;;;15.10;48.20;;;;;;4998577;28;20216;-86
2021/11/09 13:25:41;;;;;;;6.80;4.37;;;15.10;47.60;;;;;;5012655;28;20656;-87
2021/11/09 13:28:13;;;;;;;11.37;4.80;;;15.10;47.80;;;;;;5023304;28;20362;-87
2021/11/09 13:30:41;;;;;;;11.90;5.10;;;15.20;47.70;;;;;;4993807;28;20208;-87
2021/11/09 13:33:08;;;;;;;7.50;4.30;;;15.30;46.30;;;;;;5013443;28;20185;-86
2021/11/09 13:35:37;;;;;;;7.73;4.60;;;15.20;47.80;;;;;;5014254;28;20327;-87
2021/11/09 13:38:23;;;;;;;9.53;4.50;;;15.30;46.30;;;;;;5012206;28;20240;-88
2021/11/09 13:40:52;;;;;;;7.30;3.93;;;15.10;46.70;;;;;;5008723;28;20209;-87
2021/11/09 13:43:27;;;;;;;7.03;4.20;;;15.20;46.30;;;;;;4995922;28;20204;-89
2021/11/09 13:46:04;;;;;;;5.73;4.27;;;15.10;46.70;;;;;;5015619;28;20188;-87
2021/11/09 13:48:43;;;;;;;8.63;4.07;;;14.90;46.70;;;;;;4981673;28;20320;-88
2021/11/09 13:51:26;;;;;;;5.67;4.00;;;14.80;46.80;;;;;;4997718;28;20586;-88
2021/11/09 13:54:04;;;;;;;6.57;4.10;;;14.80;46.30;;;;;;5008322;28;20196;-87
2021/11/09 13:56:33;;;;;;;5.83;3.90;;;14.50;47.50;;;;;;5013849;28;20213;-87
2021/11/09 13:59:04;;;;;;;4.67;3.63;;;14.40;47.50;;;;;;4971385;28;20356;-87
2021/11/09 14:10:46;;;;;;;4.97;3.40;;;14.50;47.80;;;;;;5013519;28;20249;-88
2021/11/09 14:15:49;;;;;;;6.50;3.90;;;14.10;49.40;;;;;;5015553;28;20186;-88
2021/11/09 14:18:33;;;;;;;6.83;3.87;;;14.00;48.40;;;;;;4979713;28;20635;-89
2021/11/09 14:21:02;;;;;;;8.30;3.53;;;13.70;48.70;;;;;;5024525;28;20580;-88
2021/11/09 14:23:43;;;;;;;5.27;3.47;;;13.60;48.90;;;;;;5009982;28;20217;-88
2021/11/09 14:26:28;;;;;;;5.93;3.43;;;13.50;51.10;;;;;;5000343;28;20185;-88
2021/11/09 14:29:00;;;;;;;7.27;3.70;;;13.50;50.10;;;;;;5003862;28;20214;-88
2021/11/09 14:32:35;;;;;;;5.17;3.67;;;13.70;49.90;;;;;;4994551;28;20200;-88
2021/11/09 14:35:08;;;;;;;5.73;3.53;;;13.90;49.50;;;;;;4980466;28;20235;-88
2021/11/09 14:38:10;;;;;;;6.60;3.63;;;14.00;49.30;;;;;;4991959;28;20227;-89
2021/11/09 14:41:00;;;;;;;7.20;3.83;;;14.20;48.60;;;;;;5021037;28;20209;-88
2021/11/09 14:44:09;;;;;;;7.37;3.57;;;14.40;48.70;;;;;;4986437;28;20213;-88
2021/11/09 14:47:00;;;;;;;6.70;3.73;;;14.60;47.50;;;;;;4994574;28;20207;-87
2021/11/09 14:49:40;;;;;;;6.17;3.53;;;14.70;46.70;;;;;;5010070;28;20256;-86
2021/11/09 14:52:08;;;;;;;7.67;3.47;;;14.70;46.90;;;;;;5009423;28;20210;-88
2021/11/09 14:57:43;;;;;;;6.90;3.73;;;14.40;46.90;;;;;;5004841;28;20644;-87
2021/11/09 15:00:17;;;;;;;5.97;3.73;;;14.10;49.20;;;;;;4964968;28;20236;-87
2021/11/09 15:02:44;;;;;;;4.53;4.13;;;14.10;48.30;;;;;;5012449;28;20201;-88
2021/11/09 15:05:42;;;;;;;6.20;3.90;;;14.10;48.20;;;;;;4996491;28;20202;-86
2021/11/09 15:08:51;;;;;;;5.53;3.83;;;14.00;49.00;;;;;;5004638;28;20208;-87
2021/11/09 15:11:48;;;;;;;5.17;3.87;;;13.90;48.80;;;;;;4992178;28;20585;-88
2021/11/09 15:25:57;;;;;;;5.07;3.33;;;13.00;52.20;;;;;;4993499;28;20255;-88
2021/11/09 15:32:10;;;;;;;6.43;3.70;;;12.70;52.80;;;;;;4968362;28;20198;-88
2021/11/09 15:40:33;;;;;;;12.80;8.37;;;12.30;54.20;;;;;;4980040;28;20202;-87
2021/11/09 15:42:59;;;;;;;8.40;5.77;;;12.10;55.40;;;;;;4970212;28;20257;-87
2021/11/09 15:45:53;;;;;;;4.70;4.30;;;12.10;55.30;;;;;;4962972;28;20210;-86
2021/11/09 15:49:00;;;;;;;6.07;4.90;;;12.00;55.00;;;;;;5009687;28;20296;-87
2021/11/09 15:51:26;;;;;;;11.23;10.33;;;11.90;57.30;;;;;;5007872;28;20213;-87
2021/11/09 15:53:52;;;;;;;10.77;5.77;;;11.80;56.00;;;;;;4986065;28;20719;-87
2021/11/09 15:56:19;;;;;;;8.63;7.87;;;11.70;56.50;;;;;;4992483;28;20205;-88
2021/11/09 15:58:51;;;;;;;11.17;9.67;;;11.50;57.70;;;;;;4983060;28;20202;-88
2021/11/09 16:01:20;;;;;;;5.77;5.17;;;11.40;58.30;;;;;;5007741;28;20194;-87
2021/11/09 16:03:51;;;;;;;9.90;4.80;;;11.30;59.60;;;;;;4994402;28;20619;-86
2021/11/09 16:06:17;;;;;;;6.03;4.50;;;11.20;60.60;;;;;;4994743;28;20185;-87
2021/11/09 16:08:51;;;;;;;5.63;3.70;;;11.10;60.70;;;;;;4995356;28;20217;-86
2021/11/09 16:11:20;;;;;;;6.33;4.27;;;11.00;61.90;;;;;;5009479;28;20195;-86
2021/11/09 16:13:54;;;;;;;4.97;3.40;;;11.10;60.50;;;;;;4990054;28;20224;-86
2021/11/09 16:16:48;;;;;;;7.53;3.87;;;11.10;61.20;;;;;;4992966;28;20195;-86
2021/11/09 16:19:15;;;;;;;6.13;3.10;;;10.90;62.50;;;;;;5012943;28;20193;-87
2021/11/09 16:21:47;;;;;;;6.07;3.23;;;10.80;64.00;;;;;;4998498;28;20190;-86